createdAt,value
2016-08-01T00:00:01.573Z,4.18
2016-08-01T00:01:01.570Z,4.21
2016-08-01T00:02:01.585Z,4.2
2016-08-01T00:03:01.544Z,4.2
2016-08-01T00:04:01.541Z,4.21
2016-08-01T00:05:01.537Z,4.13
2016-08-01T00:06:01.533Z,4.16
2016-08-01T00:07:01.522Z,4.16
2016-08-01T00:08:01.542Z,4.11
2016-08-01T00:09:01.494Z,4.18
2016-08-01T00:10:01.478Z,4.17
2016-08-01T00:11:01.466Z,4.16
2016-08-01T00:12:01.478Z,4.17
2016-08-01T00:13:01.464Z,4.16
2016-08-01T00:14:01.463Z,4.18
2016-08-01T00:15:01.445Z,4.14
2016-08-01T00:16:01.418Z,4.14
2016-08-01T00:17:01.415Z,4.18
2016-08-01T00:18:01.419Z,4.17
2016-08-01T00:19:01.376Z,4.29
2016-08-01T00:20:01.376Z,4.28
2016-08-01T00:21:01.362Z,4.16
2016-08-01T00:22:01.345Z,4.18
2016-08-01T00:23:01.359Z,4.17
2016-08-01T00:24:01.338Z,4.14
2016-08-01T00:25:01.354Z,4.26
2016-08-01T00:26:01.318Z,4.2
2016-08-01T00:27:01.297Z,4.14
2016-08-01T00:28:01.303Z,4.16
2016-08-01T00:29:01.294Z,4.17
2016-08-01T00:30:01.265Z,4.18
2016-08-01T00:31:01.252Z,4.26
2016-08-01T00:32:01.274Z,4.2
2016-08-01T00:33:01.246Z,4.24
2016-08-01T00:34:01.241Z,4.2
2016-08-01T00:35:01.224Z,4.2
2016-08-01T00:36:01.203Z,4.25
2016-08-01T00:37:01.217Z,4.2
2016-08-01T00:38:01.179Z,4.2
2016-08-01T00:39:01.189Z,4.18
2016-08-01T00:40:01.168Z,4.21
2016-08-01T00:41:01.182Z,4.25
2016-08-01T00:42:01.152Z,4.28
2016-08-01T00:43:01.164Z,4.18
2016-08-01T00:44:01.119Z,4.31
2016-08-01T00:45:01.120Z,4.31
2016-08-01T00:46:01.110Z,4.17
2016-08-01T00:47:01.122Z,4.28
2016-08-01T00:48:01.081Z,4.25
2016-08-01T00:49:01.082Z,4.28
2016-08-01T00:50:01.077Z,4.32
2016-08-01T00:51:01.062Z,4.34
2016-08-01T00:52:01.066Z,4.34
2016-08-01T00:53:01.049Z,4.25
2016-08-01T00:54:01.039Z,4.25
2016-08-01T00:55:01.016Z,4.39
2016-08-01T00:56:01.026Z,4.38
2016-08-01T00:57:01.010Z,4.47
2016-08-01T00:58:00.983Z,4.36
2016-08-01T00:59:00.999Z,4.26
2016-08-01T01:00:00.969Z,4.32
2016-08-01T01:01:00.974Z,4.32
2016-08-01T01:02:00.951Z,4.39
2016-08-01T01:03:00.946Z,4.31
2016-08-01T01:04:00.944Z,4.29
2016-08-01T01:05:00.908Z,4.32
2016-08-01T01:06:00.901Z,4.29
2016-08-01T01:07:00.901Z,4.29
2016-08-01T01:08:00.877Z,4.25
2016-08-01T01:09:00.901Z,4.31
2016-08-01T01:10:00.878Z,4.29
2016-08-01T01:11:00.882Z,4.29
2016-08-01T01:12:00.867Z,4.25
2016-08-01T01:13:00.864Z,4.29
2016-08-01T01:14:00.824Z,4.28
2016-08-01T01:15:00.812Z,4.35
2016-08-01T01:16:00.807Z,4.38
2016-08-01T01:17:00.793Z,4.38
2016-08-01T01:18:00.813Z,4.34
2016-08-01T01:19:00.794Z,4.49
2016-08-01T01:20:00.778Z,4.39
2016-08-01T01:21:00.763Z,4.28
2016-08-01T01:22:00.762Z,4.18
2016-08-01T01:23:00.747Z,4.16
2016-08-01T01:24:00.739Z,4.17
2016-08-01T01:25:00.727Z,4.21
2016-08-01T01:26:00.717Z,4.17
2016-08-01T01:27:00.699Z,4.25
2016-08-01T01:28:00.693Z,4.08
2016-08-01T01:29:00.689Z,4.2
2016-08-01T01:30:00.688Z,4.14
2016-08-01T01:31:00.648Z,4.21
2016-08-01T01:32:00.674Z,4.26
2016-08-01T01:33:00.649Z,4.31
2016-08-01T01:34:00.643Z,4.29
2016-08-01T01:35:00.619Z,4.28
2016-08-01T01:36:00.614Z,4.32
2016-08-01T01:37:00.583Z,4.53
2016-08-01T01:38:00.609Z,4.42
2016-08-01T01:39:00.581Z,4.31
2016-08-01T01:40:00.561Z,4.2
2016-08-01T01:41:00.564Z,4.13
2016-08-01T01:42:00.536Z,4.18
2016-08-01T01:43:00.557Z,4.24
2016-08-01T01:44:00.540Z,4.14
2016-08-01T01:45:00.510Z,4.07
2016-08-01T01:46:00.505Z,3.99
2016-08-01T01:47:01.191Z,4.07
2016-08-01T01:48:00.485Z,4.07
2016-08-01T01:49:00.477Z,3.99
2016-08-01T01:50:00.473Z,3.93
2016-08-01T01:51:00.468Z,3.98
2016-08-01T01:52:00.439Z,4.11
2016-08-01T01:53:00.432Z,4.08
2016-08-01T01:54:00.415Z,4.07
2016-08-01T01:55:00.429Z,4.08
2016-08-01T01:56:00.400Z,4.11
2016-08-01T01:57:00.403Z,3.95
2016-08-01T01:58:00.370Z,4.07
2016-08-01T01:59:00.388Z,4.11
2016-08-01T02:00:00.371Z,4.18
2016-08-01T02:01:00.364Z,4.14
2016-08-01T02:02:00.349Z,4.14
2016-08-01T02:03:00.323Z,4.17
2016-08-01T02:04:00.337Z,4.21
2016-08-01T02:05:00.325Z,4.11
2016-08-01T02:06:00.300Z,4.13
2016-08-01T02:07:00.268Z,4.06
2016-08-01T02:08:00.293Z,4.2
2016-08-01T02:09:00.267Z,4.17
2016-08-01T02:10:00.265Z,4.16
2016-08-01T02:11:00.256Z,4.2
2016-08-01T02:12:00.225Z,4.2
2016-08-01T02:13:00.228Z,4.17
2016-08-01T02:14:00.214Z,4.18
2016-08-01T02:15:00.223Z,4.25
2016-08-01T02:16:00.198Z,4.18
2016-08-01T02:17:00.185Z,4.21
2016-08-01T02:18:00.156Z,4.18
2016-08-01T02:19:00.163Z,4.18
2016-08-01T02:20:00.149Z,4.36
2016-08-01T02:21:00.144Z,4.36
2016-08-01T02:22:00.127Z,4.29
2016-08-01T02:23:00.141Z,4.34
2016-08-01T02:24:00.128Z,4.36
2016-08-01T02:25:00.110Z,4.46
2016-08-01T02:26:00.096Z,4.47
2016-08-01T02:27:00.068Z,4.35
2016-08-01T02:28:00.077Z,4.38
2016-08-01T02:29:00.058Z,4.29
2016-08-01T02:30:00.044Z,4.26
2016-08-01T02:31:00.047Z,4.35
2016-08-01T02:32:00.046Z,4.17
2016-08-01T02:33:00.029Z,4.31
2016-08-01T02:35:00.012Z,4.18
2016-08-01T02:36:00.008Z,4.26
2016-08-01T02:36:59.967Z,4.18
2016-08-01T02:37:59.964Z,4.25
2016-08-01T02:38:59.954Z,4.28
2016-08-01T02:39:59.985Z,4.36
2016-08-01T02:40:59.943Z,4.31
2016-08-01T02:41:59.942Z,4.35
2016-08-01T02:42:59.919Z,4.5
2016-08-01T02:43:59.913Z,4.5
2016-08-01T02:44:59.912Z,4.57
2016-08-01T02:45:59.903Z,4.31
2016-08-01T02:46:59.908Z,4.32
2016-08-01T02:47:59.876Z,4.29
2016-08-01T02:49:59.843Z,4.44
2016-08-01T02:51:00.568Z,4.61
2016-08-01T02:51:59.844Z,4.67
2016-08-01T02:52:59.830Z,4.64
2016-08-01T02:53:59.820Z,4.46
2016-08-01T02:54:59.817Z,4.62
2016-08-01T02:55:59.803Z,4.75
2016-08-01T02:57:00.493Z,4.68
2016-08-01T02:57:59.785Z,4.67
2016-08-01T02:58:59.771Z,4.62
2016-08-01T02:59:59.749Z,4.72
2016-08-01T03:00:59.755Z,4.72
2016-08-01T03:01:59.737Z,4.65
2016-08-01T03:02:59.743Z,4.61
2016-08-01T03:05:00.420Z,4.75
2016-08-01T03:05:59.700Z,4.68
2016-08-01T03:06:59.697Z,4.68
2016-08-01T03:07:59.681Z,4.65
2016-08-01T03:08:59.666Z,4.5
2016-08-01T03:09:59.665Z,4.49
2016-08-01T03:10:59.660Z,4.39
2016-08-01T03:11:59.666Z,4.39
2016-08-01T03:12:59.665Z,4.24
2016-08-01T03:13:59.620Z,4.31
2016-08-01T03:14:59.683Z,4.2
2016-08-01T03:15:59.613Z,4.16
2016-08-01T03:16:59.620Z,4.26
2016-08-01T03:17:59.605Z,4.32
2016-08-01T03:18:59.599Z,4.47
2016-08-01T03:19:59.580Z,4.26
2016-08-01T03:20:59.574Z,4.38
2016-08-01T03:21:59.579Z,4.29
2016-08-01T03:22:59.550Z,4.18
2016-08-01T03:23:59.553Z,4.25
2016-08-01T03:24:59.552Z,4.24
2016-08-01T03:25:59.512Z,4.21
2016-08-01T03:26:59.527Z,4.2
2016-08-01T03:27:59.514Z,4.28
2016-08-01T03:28:59.492Z,4.31
2016-08-01T03:29:59.487Z,4.31
2016-08-01T03:30:59.463Z,4.34
2016-08-01T03:31:59.487Z,4.35
2016-08-01T03:32:59.464Z,4.39
2016-08-01T03:33:59.461Z,4.28
2016-08-01T03:34:59.427Z,4.32
2016-08-01T03:35:59.441Z,4.28
2016-08-01T03:36:59.424Z,4.14
2016-08-01T03:37:59.401Z,4.17
2016-08-01T03:38:59.403Z,4.28
2016-08-01T03:39:59.409Z,4.26
2016-08-01T03:40:59.401Z,4.28
2016-08-01T03:41:59.354Z,4.24
2016-08-01T03:42:59.367Z,4.2
2016-08-01T03:43:59.356Z,4.28
2016-08-01T03:44:59.339Z,4.26
2016-08-01T03:45:59.359Z,4.24
2016-08-01T03:46:59.337Z,4.21
2016-08-01T03:47:59.311Z,4.17
2016-08-01T03:48:59.307Z,4.16
2016-08-01T03:49:59.277Z,4.36
2016-08-01T03:50:59.302Z,4.56
2016-08-01T03:51:59.274Z,4.53
2016-08-01T03:52:59.266Z,4.47
2016-08-01T03:53:59.267Z,4.5
2016-08-01T03:54:59.236Z,4.56
2016-08-01T03:55:59.231Z,4.5
2016-08-01T03:56:59.210Z,4.43
2016-08-01T03:57:59.237Z,4.53
2016-08-01T03:58:59.223Z,4.64
2016-08-01T03:59:59.218Z,4.69
2016-08-01T04:00:59.208Z,4.61
2016-08-01T04:01:59.165Z,4.65
2016-08-01T04:02:59.166Z,4.51
2016-08-01T04:03:59.159Z,4.44
2016-08-01T04:04:59.154Z,4.36
2016-08-01T04:05:59.153Z,4.24
2016-08-01T04:06:59.132Z,4.21
2016-08-01T04:07:59.125Z,4.18
2016-08-01T04:08:59.119Z,4.17
2016-08-01T04:09:59.102Z,4.28
2016-08-01T04:10:59.084Z,4.31
2016-08-01T04:11:59.086Z,4.32
2016-08-01T04:12:59.088Z,4.44
2016-08-01T04:13:59.054Z,4.43
2016-08-01T04:14:59.056Z,4.31
2016-08-01T04:15:59.054Z,4.25
2016-08-01T04:16:59.021Z,4.42
2016-08-01T04:17:59.047Z,4.36
2016-08-01T04:18:59.031Z,4.2
2016-08-01T04:19:59.017Z,4.16
2016-08-01T04:20:59.003Z,4.34
2016-08-01T04:21:58.975Z,4.42
2016-08-01T04:22:58.993Z,4.49
2016-08-01T04:23:58.985Z,4.49
2016-08-01T04:24:58.959Z,4.65
2016-08-01T04:25:58.970Z,4.53
2016-08-01T04:26:58.949Z,4.65
2016-08-01T04:27:58.931Z,4.72
2016-08-01T04:28:58.918Z,4.68
2016-08-01T04:29:58.928Z,4.77
2016-08-01T04:30:58.910Z,4.88
2016-08-01T04:31:58.899Z,4.79
2016-08-01T04:32:58.871Z,4.71
2016-08-01T04:33:58.875Z,4.72
2016-08-01T04:34:58.865Z,4.77
2016-08-01T04:35:58.857Z,4.64
2016-08-01T04:36:58.847Z,4.36
2016-08-01T04:37:58.834Z,4.14
2016-08-01T04:38:58.829Z,4.16
2016-08-01T04:39:58.812Z,3.99
2016-08-01T04:40:58.796Z,3.96
2016-08-01T04:41:58.810Z,4.04
2016-08-01T04:42:58.781Z,3.88
2016-08-01T04:43:58.778Z,3.84
2016-08-01T04:44:58.771Z,3.88
2016-08-01T04:45:58.757Z,3.78
2016-08-01T04:46:58.769Z,3.86
2016-08-01T04:47:58.733Z,3.93
2016-08-01T04:48:58.734Z,3.93
2016-08-01T04:49:58.709Z,4.04
2016-08-01T04:50:58.717Z,3.96
2016-08-01T04:51:58.705Z,3.96
2016-08-01T04:52:58.706Z,4.02
2016-08-01T04:53:59.383Z,4
2016-08-01T04:54:58.667Z,3.98
2016-08-01T04:55:58.654Z,3.99
2016-08-01T04:56:58.666Z,3.99
2016-08-01T04:57:58.634Z,3.98
2016-08-01T04:58:58.634Z,4
2016-08-01T04:59:58.618Z,3.93
2016-08-01T05:00:58.603Z,3.96
2016-08-01T05:01:58.598Z,3.81
2016-08-01T05:02:58.581Z,3.93
2016-08-01T05:03:58.588Z,3.81
2016-08-01T05:04:58.572Z,4.18
2016-08-01T05:05:58.564Z,4.13
2016-08-01T05:06:58.560Z,4.39
2016-08-01T05:07:58.549Z,4.51
2016-08-01T05:08:58.547Z,4.68
2016-08-01T05:09:58.511Z,4.91
2016-08-01T05:10:58.532Z,4.99
2016-08-01T05:11:58.507Z,5.12
2016-08-01T05:12:58.501Z,5.33
2016-08-01T05:13:58.470Z,5.38
2016-08-01T05:14:58.480Z,5.29
2016-08-01T05:15:58.460Z,5.33
2016-08-01T05:16:58.473Z,5.29
2016-08-01T05:17:58.451Z,5.29
2016-08-01T05:18:58.424Z,5.22
2016-08-01T05:19:58.433Z,5.26
2016-08-01T05:20:58.423Z,5.42
2016-08-01T05:21:58.423Z,5.55
2016-08-01T05:22:58.417Z,5.42
2016-08-01T05:23:58.387Z,5.4
2016-08-01T05:24:58.383Z,5.32
2016-08-01T05:25:58.390Z,5.38
2016-08-01T05:26:58.353Z,5.47
2016-08-01T05:27:58.347Z,5.49
2016-08-01T05:28:58.361Z,5.47
2016-08-01T05:29:58.337Z,5.27
2016-08-01T05:30:58.318Z,4.99
2016-08-01T05:31:58.318Z,4.77
2016-08-01T05:32:58.317Z,4.72
2016-08-01T05:33:58.280Z,4.77
2016-08-01T05:34:58.280Z,4.94
2016-08-01T05:35:58.294Z,5.06
2016-08-01T05:36:58.270Z,5.12
2016-08-01T05:37:58.270Z,5.02
2016-08-01T05:38:58.247Z,5.04
2016-08-01T05:39:58.240Z,5.05
2016-08-01T05:40:58.235Z,5.14
2016-08-01T05:41:58.229Z,5.2
2016-08-01T05:42:58.226Z,5.15
2016-08-01T05:43:58.210Z,4.9
2016-08-01T05:44:58.175Z,4.69
2016-08-01T05:45:58.191Z,4.51
2016-08-01T05:46:58.167Z,4.32
2016-08-01T05:47:58.168Z,4.28
2016-08-01T05:48:58.149Z,4.21
2016-08-01T05:49:58.132Z,3.99
2016-08-01T05:50:58.138Z,4.04
2016-08-01T05:51:58.124Z,4.02
2016-08-01T05:52:58.140Z,3.93
2016-08-01T05:53:58.115Z,4.04
2016-08-01T05:54:58.100Z,3.88
2016-08-01T05:55:58.098Z,3.75
2016-08-01T05:56:58.085Z,3.78
2016-08-01T05:57:58.065Z,3.81
2016-08-01T05:58:58.065Z,3.93
2016-08-01T05:59:58.045Z,3.96
2016-08-01T06:00:58.741Z,3.8
2016-08-01T06:01:58.035Z,3.88
2016-08-01T06:02:58.018Z,3.82
2016-08-01T06:03:58.017Z,3.82
2016-08-01T06:04:58.004Z,4.1
2016-08-01T06:05:58.001Z,4.18
2016-08-01T06:06:57.964Z,4.24
2016-08-01T06:07:57.973Z,4.26
2016-08-01T06:08:57.961Z,4.17
2016-08-01T06:09:57.959Z,3.98
2016-08-01T06:10:57.921Z,3.95
2016-08-01T06:11:57.938Z,4.02
2016-08-01T06:12:57.936Z,4
2016-08-01T06:13:57.917Z,4.11
2016-08-01T06:14:57.908Z,3.98
2016-08-01T06:15:57.884Z,3.89
2016-08-01T06:16:57.879Z,3.89
2016-08-01T06:17:57.866Z,3.72
2016-08-01T06:18:57.853Z,3.86
2016-08-01T06:19:57.855Z,3.88
2016-08-01T06:20:57.825Z,3.74
2016-08-01T06:21:57.829Z,3.7
2016-08-01T06:22:57.833Z,3.77
2016-08-01T06:23:57.819Z,3.67
2016-08-01T06:24:57.808Z,3.72
2016-08-01T06:25:57.790Z,3.68
2016-08-01T06:26:57.791Z,3.67
2016-08-01T06:27:57.760Z,3.68
2016-08-01T06:28:57.759Z,3.71
2016-08-01T06:29:57.740Z,3.68
2016-08-01T06:30:57.714Z,3.74
2016-08-01T06:31:57.734Z,3.8
2016-08-01T06:32:57.722Z,3.64
2016-08-01T06:33:57.683Z,3.8
2016-08-01T06:34:57.695Z,3.77
2016-08-01T06:35:57.653Z,3.86
2016-08-01T06:36:58.344Z,3.78
2016-08-01T06:37:57.649Z,3.84
2016-08-01T06:38:57.658Z,3.86
2016-08-01T06:39:57.644Z,3.88
2016-08-01T06:40:57.627Z,3.86
2016-08-01T06:41:57.596Z,3.81
2016-08-01T06:42:57.592Z,3.77
2016-08-01T06:43:57.596Z,3.9
2016-08-01T06:44:57.572Z,3.64
2016-08-01T06:45:57.567Z,3.78
2016-08-01T06:46:57.557Z,3.81
2016-08-01T06:47:57.562Z,3.74
2016-08-01T06:48:57.512Z,3.8
2016-08-01T06:49:57.526Z,3.9
2016-08-01T06:50:57.521Z,3.68
2016-08-01T06:51:57.492Z,3.54
2016-08-01T06:52:57.483Z,3.7
2016-08-01T06:53:57.492Z,3.72
2016-08-01T06:54:57.456Z,3.7
2016-08-01T06:55:57.456Z,3.63
2016-08-01T06:56:57.441Z,3.64
2016-08-01T06:57:57.440Z,3.7
2016-08-01T06:58:57.409Z,3.57
2016-08-01T06:59:57.408Z,3.67
2016-08-01T07:00:57.404Z,3.81
2016-08-01T07:01:57.380Z,3.7
2016-08-01T07:02:57.376Z,3.54
2016-08-01T07:03:57.368Z,3.6
2016-08-01T07:04:57.355Z,3.86
2016-08-01T07:05:57.349Z,3.89
2016-08-01T07:06:57.349Z,3.96
2016-08-01T07:07:57.327Z,3.92
2016-08-01T07:08:57.320Z,3.9
2016-08-01T07:09:57.304Z,3.84
2016-08-01T07:10:57.303Z,4.04
2016-08-01T07:11:57.299Z,3.98
2016-08-01T07:12:57.252Z,3.67
2016-08-01T07:13:57.255Z,3.6
2016-08-01T07:14:57.247Z,3.7
2016-08-01T07:15:57.233Z,3.64
2016-08-01T07:16:57.214Z,3.95
2016-08-01T07:17:57.228Z,3.86
2016-08-01T07:18:57.222Z,3.68
2016-08-01T07:20:57.201Z,3.72
2016-08-01T07:21:57.174Z,3.6
2016-08-01T07:22:57.167Z,3.72
2016-08-01T07:23:57.152Z,3.67
2016-08-01T07:24:57.154Z,3.68
2016-08-01T07:25:57.121Z,3.86
2016-08-01T07:26:57.115Z,3.89
2016-08-01T07:27:57.113Z,3.9
2016-08-01T07:28:57.095Z,3.96
2016-08-01T07:29:57.096Z,4.08
2016-08-01T07:30:57.067Z,4.1
2016-08-01T07:31:57.085Z,4.07
2016-08-01T07:32:57.041Z,3.98
2016-08-01T07:42:06.460Z,3.98
2016-08-01T07:43:06.451Z,3.96
2016-08-01T07:44:06.451Z,3.92
2016-08-01T07:45:06.436Z,3.92
2016-08-01T07:46:07.362Z,3.99
2016-08-01T07:47:06.616Z,4.04
2016-08-01T07:48:06.414Z,3.82
2016-08-01T07:49:06.402Z,3.78
2016-08-01T07:50:06.401Z,3.93
2016-08-01T07:51:06.375Z,4.02
2016-08-01T07:52:06.352Z,3.93
2016-08-01T07:53:06.354Z,3.81
2016-08-01T07:54:06.336Z,3.96
2016-08-01T07:55:06.354Z,3.84
2016-08-01T07:56:06.300Z,3.93
2016-08-01T07:57:06.307Z,3.88
2016-08-01T07:58:06.285Z,3.95
2016-08-01T07:59:06.303Z,4
2016-08-01T08:00:06.292Z,4.1
2016-08-01T08:01:06.259Z,4.13
2016-08-01T08:02:06.996Z,4.08
2016-08-01T08:03:06.230Z,4.18
2016-08-01T08:04:06.228Z,4.24
2016-08-01T08:06:06.210Z,4.17
2016-08-01T08:07:06.211Z,4.13
2016-08-01T08:08:06.207Z,4.11
2016-08-01T08:09:06.189Z,4.21
2016-08-01T08:10:06.179Z,4.04
2016-08-01T08:11:06.174Z,4.16
2016-08-01T08:12:06.166Z,4.16
2016-08-01T08:13:06.142Z,4.2
2016-08-01T08:14:06.136Z,4.1
2016-08-01T08:15:06.822Z,4.07
2016-08-01T08:16:06.108Z,3.95
2016-08-01T08:17:06.099Z,3.98
2016-08-01T08:18:06.089Z,4.07
2016-08-01T08:19:06.055Z,4.08
2016-08-01T08:20:06.059Z,4.2
2016-08-01T08:21:06.054Z,4.11
2016-08-01T08:22:06.032Z,4.16
2016-08-01T08:23:06.035Z,4.25
2016-08-01T08:24:06.016Z,4.21
2016-08-01T08:25:06.024Z,4.14
2016-08-01T08:26:06.011Z,4.21
2016-08-01T08:27:06.000Z,4.2
2016-08-01T08:28:05.995Z,4.2
2016-08-01T08:29:05.946Z,4.26
2016-08-01T08:30:05.946Z,4.25
2016-08-01T08:31:05.933Z,4.36
2016-08-01T08:32:05.934Z,4.38
2016-08-01T08:33:05.929Z,4.38
2016-08-01T08:34:05.904Z,4.49
2016-08-01T08:35:05.914Z,4.79
2016-08-01T08:36:05.883Z,4.62
2016-08-01T08:37:05.862Z,4.65
2016-08-01T08:38:05.873Z,4.72
2016-08-01T08:39:05.843Z,4.91
2016-08-01T08:40:05.845Z,4.88
2016-08-01T08:41:05.843Z,5.02
2016-08-01T08:42:05.812Z,4.94
2016-08-01T08:43:05.824Z,5.01
2016-08-01T08:44:05.789Z,5.23
2016-08-01T08:45:05.798Z,5.32
2016-08-01T08:46:06.459Z,5.63
2016-08-01T08:47:05.767Z,5.95
2016-08-01T08:48:05.772Z,5.99
2016-08-01T08:49:05.749Z,5.98
2016-08-01T08:50:05.744Z,5.96
2016-08-01T08:51:05.735Z,5.84
2016-08-01T08:52:05.710Z,5.85
2016-08-01T08:53:05.716Z,5.93
2016-08-01T08:54:05.689Z,5.92
2016-08-01T08:55:05.687Z,6.01
2016-08-01T08:56:05.690Z,6.25
2016-08-01T08:57:05.649Z,6.46
2016-08-01T08:58:05.662Z,6.68
2016-08-01T08:59:05.636Z,6.58
2016-08-01T09:00:05.640Z,6.4
2016-08-01T09:01:05.625Z,6.57
2016-08-01T09:02:05.602Z,6.38
2016-08-01T09:03:05.808Z,6.33
2016-08-01T09:04:05.589Z,6.43
2016-08-01T09:05:05.565Z,6.19
2016-08-01T09:06:05.571Z,6.24
2016-08-01T09:07:05.565Z,6.28
2016-08-01T09:08:05.539Z,6.6
2016-08-01T09:09:05.531Z,6.89
2016-08-01T09:10:05.529Z,6.6
2016-08-01T09:11:05.501Z,6.42
2016-08-01T09:12:05.529Z,6.21
2016-08-01T09:13:05.512Z,6.19
2016-08-01T09:14:05.478Z,6.14
2016-08-01T09:15:05.509Z,5.93
2016-08-01T09:16:05.454Z,6.27
2016-08-01T09:17:05.455Z,6.51
2016-08-01T09:18:05.468Z,6.54
2016-08-01T09:19:05.458Z,6.55
2016-08-01T09:20:05.440Z,6.9
2016-08-01T09:21:05.406Z,6.71
2016-08-01T09:22:05.414Z,6.73
2016-08-01T09:23:05.398Z,6.58
2016-08-01T09:24:06.073Z,6.48
2016-08-01T09:25:05.371Z,6.54
2016-08-01T09:26:05.387Z,6.86
2016-08-01T09:27:05.349Z,6.75
2016-08-01T09:28:05.368Z,6.57
2016-08-01T09:29:05.342Z,6.53
2016-08-01T09:30:05.326Z,6.86
2016-08-01T09:31:05.342Z,7.23
2016-08-01T09:32:05.305Z,7.29
2016-08-01T09:33:05.305Z,7.36
2016-08-01T09:34:05.287Z,7.24
2016-08-01T09:35:05.299Z,7.84
2016-08-01T09:36:05.288Z,8.21
2016-08-01T09:37:05.271Z,8.49
2016-08-01T09:38:05.251Z,8.29
2016-08-01T09:39:05.243Z,7.91
2016-08-01T09:40:05.232Z,7.77
2016-08-01T09:41:05.222Z,7.3
2016-08-01T09:42:05.228Z,7.79
2016-08-01T09:43:05.421Z,8.49
2016-08-01T09:44:05.200Z,8.68
2016-08-01T09:45:05.185Z,8.46
2016-08-01T09:46:05.164Z,8.85
2016-08-01T09:47:05.166Z,9.04
2016-08-01T09:48:05.158Z,9.63
2016-08-01T09:49:05.165Z,9.53
2016-08-01T09:50:05.141Z,9.4
2016-08-01T09:51:05.142Z,9.35
2016-08-01T09:52:05.143Z,9.55
2016-08-01T09:53:05.106Z,9.77
2016-08-01T09:54:05.313Z,9.96
2016-08-01T09:55:05.297Z,9.13
2016-08-01T09:56:05.090Z,8.82
2016-08-01T09:57:05.087Z,8.96
2016-08-01T09:58:05.098Z,8.83
2016-08-01T09:59:05.057Z,8.85
2016-08-01T10:00:05.077Z,8.57
2016-08-01T10:01:05.046Z,8.42
2016-08-01T10:02:05.067Z,8.4
2016-08-01T10:03:05.064Z,8.07
2016-08-01T10:04:05.026Z,8.14
2016-08-01T10:05:05.029Z,7.85
2016-08-01T10:06:05.014Z,7.88
2016-08-01T10:07:05.181Z,7.86
2016-08-01T10:08:05.020Z,8.04
2016-08-01T10:09:04.992Z,7.44
2016-08-01T10:10:04.971Z,7.44
2016-08-01T10:11:04.977Z,7.27
2016-08-01T10:12:04.983Z,6.61
2016-08-01T10:13:04.957Z,5.8
2016-08-01T10:14:04.953Z,5.67
2016-08-01T10:15:04.947Z,5.42
2016-08-01T10:16:04.946Z,5.75
2016-08-01T10:18:04.918Z,6.02
2016-08-01T10:19:04.897Z,5.66
2016-08-01T10:20:04.918Z,5.8
2016-08-01T10:21:04.895Z,5.81
2016-08-01T10:22:04.879Z,5.75
2016-08-01T10:23:04.872Z,5.8
2016-08-01T10:24:04.875Z,5.87
2016-08-01T10:25:04.847Z,5.77
2016-08-01T10:26:04.865Z,5.74
2016-08-01T10:27:04.824Z,5.52
2016-08-01T10:28:04.840Z,5.47
2016-08-01T10:29:04.841Z,5.49
2016-08-01T10:30:05.016Z,5.55
2016-08-01T10:31:05.014Z,5.62
2016-08-01T10:32:04.969Z,5.37
2016-08-01T10:33:04.789Z,5.14
2016-08-01T10:34:04.973Z,5.17
2016-08-01T10:35:04.773Z,5.27
2016-08-01T10:36:04.741Z,5.15
2016-08-01T10:37:04.735Z,5.04
2016-08-01T10:38:04.737Z,5.41
2016-08-01T10:39:04.720Z,5.19
2016-08-01T10:40:04.711Z,5.38
2016-08-01T10:41:04.707Z,4.88
2016-08-01T10:42:04.678Z,4.87
2016-08-01T10:43:04.682Z,4.86
2016-08-01T10:44:04.853Z,4.8
2016-08-01T10:45:04.872Z,4.72
2016-08-01T10:46:04.875Z,4.94
2016-08-01T10:47:04.650Z,5.05
2016-08-01T10:48:04.659Z,5.23
2016-08-01T10:49:04.617Z,5.19
2016-08-01T10:50:04.604Z,4.9
2016-08-01T10:51:04.607Z,4.69
2016-08-01T10:52:04.595Z,4.68
2016-08-01T10:53:04.588Z,4.61
2016-08-01T10:54:04.556Z,4.77
2016-08-01T10:55:04.555Z,4.9
2016-08-01T10:56:04.751Z,4.86
2016-08-01T10:57:05.946Z,4.8
2016-08-01T10:58:04.548Z,4.88
2016-08-01T10:59:04.511Z,4.79
2016-08-01T11:00:04.509Z,4.72
2016-08-01T11:01:04.515Z,4.71
2016-08-01T11:02:04.486Z,4.56
2016-08-01T11:03:04.482Z,4.77
2016-08-01T11:04:04.473Z,4.88
2016-08-01T11:05:04.458Z,5.08
2016-08-01T11:06:05.144Z,5.15
2016-08-01T11:07:04.440Z,5.23
2016-08-01T11:08:04.411Z,5.11
2016-08-01T11:09:04.628Z,5.15
2016-08-01T11:10:04.387Z,5.26
2016-08-01T11:11:04.390Z,5.6
2016-08-01T11:12:04.369Z,5.67
2016-08-01T11:13:04.393Z,5.88
2016-08-01T11:14:04.361Z,5.65
2016-08-01T11:15:04.376Z,5.78
2016-08-01T11:16:04.337Z,5.77
2016-08-01T11:17:04.333Z,5.7
2016-08-01T11:18:04.345Z,5.4
2016-08-01T11:19:04.321Z,5.17
2016-08-01T11:20:04.292Z,4.86
2016-08-01T11:21:04.287Z,4.84
2016-08-01T11:22:04.495Z,4.65
2016-08-01T11:23:05.696Z,4.65
2016-08-01T11:24:04.503Z,4.71
2016-08-01T11:25:04.245Z,4.72
2016-08-01T11:26:04.285Z,4.8
2016-08-01T11:27:04.218Z,4.9
2016-08-01T11:28:04.208Z,4.83
2016-08-01T11:29:04.228Z,4.69
2016-08-01T11:30:04.234Z,4.47
2016-08-01T11:31:04.174Z,4.64
2016-08-01T11:32:04.168Z,4.77
2016-08-01T11:33:04.178Z,4.84
2016-08-01T11:34:04.156Z,4.77
2016-08-01T11:35:04.349Z,4.59
2016-08-01T11:36:05.105Z,4.49
2016-08-01T11:37:04.123Z,4.5
2016-08-01T11:38:04.132Z,4.5
2016-08-01T11:39:04.114Z,4.5
2016-08-01T11:40:04.119Z,4.61
2016-08-01T11:41:04.095Z,4.72
2016-08-01T11:42:04.097Z,4.65
2016-08-01T11:43:04.075Z,4.72
2016-08-01T11:44:04.072Z,4.71
2016-08-01T11:45:04.051Z,4.74
2016-08-01T11:46:04.246Z,4.83
2016-08-01T11:47:04.045Z,4.72
2016-08-01T11:48:04.022Z,4.71
2016-08-01T11:49:04.730Z,4.77
2016-08-01T11:50:04.002Z,4.83
2016-08-01T11:51:03.978Z,4.79
2016-08-01T11:52:03.966Z,4.83
2016-08-01T11:53:03.964Z,4.83
2016-08-01T11:54:03.961Z,4.9
2016-08-01T11:55:03.963Z,4.9
2016-08-01T11:56:03.954Z,4.72
2016-08-01T11:57:03.926Z,4.68
2016-08-01T11:58:04.114Z,4.53
2016-08-01T11:59:03.889Z,4.51
2016-08-01T12:00:03.897Z,4.47
2016-08-01T12:01:04.584Z,4.39
2016-08-01T12:02:03.877Z,4.38
2016-08-01T12:03:03.873Z,4.35
2016-08-01T12:04:03.868Z,4.32
2016-08-01T12:05:03.826Z,4.49
2016-08-01T12:06:03.810Z,4.51
2016-08-01T12:07:03.833Z,4.31
2016-08-01T12:08:03.829Z,4.21
2016-08-01T12:09:03.783Z,4.43
2016-08-01T12:10:03.793Z,4.31
2016-08-01T12:11:03.964Z,4.25
2016-08-01T12:12:03.980Z,4.36
2016-08-01T12:13:03.951Z,4.35
2016-08-01T12:14:03.729Z,4.57
2016-08-01T12:15:03.747Z,4.56
2016-08-01T12:16:03.881Z,4.65
2016-08-01T12:17:03.726Z,4.69
2016-08-01T12:18:03.714Z,4.5
2016-08-01T12:19:03.704Z,4.53
2016-08-01T12:20:03.706Z,4.59
2016-08-01T12:22:03.653Z,4.57
2016-08-01T12:23:03.650Z,4.67
2016-08-01T12:24:03.835Z,4.67
2016-08-01T12:25:03.813Z,4.87
2016-08-01T12:26:03.633Z,4.91
2016-08-01T12:27:03.609Z,4.94
2016-08-01T12:28:03.581Z,4.84
2016-08-01T12:29:03.607Z,4.86
2016-08-01T12:30:03.583Z,5.11
2016-08-01T12:31:03.575Z,4.97
2016-08-01T12:32:03.578Z,4.9
2016-08-01T12:33:03.544Z,4.74
2016-08-01T12:34:03.544Z,4.79
2016-08-01T12:35:03.534Z,4.68
2016-08-01T12:37:03.506Z,4.68
2016-08-01T12:38:03.507Z,4.74
2016-08-01T12:39:03.495Z,4.77
2016-08-01T12:40:03.479Z,4.8
2016-08-01T12:41:03.462Z,4.91
2016-08-01T12:42:03.475Z,5.19
2016-08-01T12:43:03.430Z,4.87
2016-08-01T12:44:03.442Z,4.83
2016-08-01T12:45:03.432Z,4.75
2016-08-01T12:46:03.419Z,4.69
2016-08-01T12:47:03.397Z,4.62
2016-08-01T12:48:03.396Z,4.61
2016-08-01T12:49:03.615Z,4.31
2016-08-01T12:50:03.367Z,4.35
2016-08-01T12:51:03.368Z,4.34
2016-08-01T12:52:03.349Z,4.32
2016-08-01T12:53:03.346Z,4.34
2016-08-01T12:54:03.329Z,4.44
2016-08-01T12:55:03.330Z,4.31
2016-08-01T12:56:03.319Z,4.46
2016-08-01T12:57:03.317Z,4.24
2016-08-01T12:58:03.286Z,4.36
2016-08-01T12:59:03.274Z,4.57
2016-08-01T13:00:03.266Z,4.79
2016-08-01T13:01:03.444Z,4.79
2016-08-01T13:02:03.446Z,4.96
2016-08-01T13:03:03.250Z,5.06
2016-08-01T13:04:03.246Z,4.75
2016-08-01T13:05:03.199Z,4.75
2016-08-01T13:06:03.211Z,4.65
2016-08-01T13:07:03.201Z,4.64
2016-08-01T13:08:03.190Z,4.72
2016-08-01T13:09:03.172Z,4.79
2016-08-01T13:10:03.183Z,4.61
2016-08-01T13:11:03.163Z,4.38
2016-08-01T13:12:03.162Z,4.43
2016-08-01T13:13:03.149Z,4.56
2016-08-01T13:14:03.138Z,4.75
2016-08-01T13:15:03.119Z,4.75
2016-08-01T13:16:03.357Z,4.91
2016-08-01T13:17:03.115Z,4.93
2016-08-01T13:18:03.090Z,4.97
2016-08-01T13:19:03.069Z,5.09
2016-08-01T13:20:03.084Z,4.97
2016-08-01T13:21:03.062Z,4.91
2016-08-01T13:22:03.046Z,4.65
2016-08-01T13:23:03.032Z,4.51
2016-08-01T13:24:03.030Z,4.57
2016-08-01T13:25:03.021Z,4.88
2016-08-01T13:26:02.986Z,4.91
2016-08-01T13:27:02.998Z,4.8
2016-08-01T13:28:02.985Z,4.77
2016-08-01T13:29:02.986Z,4.77
2016-08-01T13:30:02.963Z,4.79
2016-08-01T13:31:02.973Z,4.75
2016-08-01T13:32:02.940Z,4.8
2016-08-01T13:33:02.929Z,4.72
2016-08-01T13:34:02.933Z,4.9
2016-08-01T13:35:02.934Z,4.88
2016-08-01T13:36:02.895Z,4.88
2016-08-01T13:37:02.905Z,4.62